Date,TemperatureHighF,TemperatureAvgF,TemperatureLowF,DewpointHighF,DewpointAvgF,DewpointLowF,HumidityHigh,HumidityAvg,HumidityLow,PressureMaxIn,PressureMinIn,WindSpeedMaxMPH,WindSpeedAvgMPH,GustSpeedMaxMPH,PrecipitationSumIn
2013-1-1,32.0,26.9,24.0,24.0,22.1,19.0,90,82,68,30.33,30.16,8,2,12,0.00
2013-1-2,30.0,26.6,25.0,26.0,22.7,21.0,92,85,76,30.33,30.23,2,1,4,0.00
2013-1-3,34.0,23.4,14.0,22.0,17.1,10.0,87,77,57,30.23,30.07,6,2,8,0.00
2013-1-4,28.0,23.0,16.0,22.0,19.0,13.0,89,84,76,30.18,30.11,4,1,6,0.00
2013-1-5,31.0,26.6,19.0,27.0,23.5,16.0,96,88,71,30.18,29.92,4,1,8,0.00
2013-1-6,31.0,29.0,27.0,28.0,26.2,25.0,97,89,77,29.92,29.83,8,1,12,0.00
2013-1-7,32.0,28.7,27.0,32.0,28.1,26.0,99,97,94,29.83,29.59,2,0,4,0.00
2013-1-8,34.0,29.3,22.0,32.0,28.2,20.0,99,96,83,29.88,29.55,15,1,21,0.00
2013-1-9,38.0,32.1,29.0,38.0,32.1,29.0,99,99,99,29.55,29.33,4,0,7,0.17
2013-1-10,38.0,31.6,24.0,37.0,28.0,19.0,99,88,52,29.71,29.50,9,1,17,0.08
2013-1-11,35.0,20.9,10.0,26.0,16.8,7.0,94,84,64,29.98,29.71,6,3,8,0.08
2013-1-12,28.0,12.9,4.0,16.0,8.2,1.0,89,82,60,30.08,29.98,6,2,8,0.01
2013-1-13,21.0,12.0,3.0,14.0,7.5,0.0,88,82,69,30.20,30.08,4,2,8,0.01
2013-1-14,23.0,19.6,16.0,19.0,15.8,13.0,89,86,78,30.21,30.08,2,0,4,0.00
2013-1-15,28.0,24.4,21.0,22.0,20.1,18.0,90,84,74,30.33,30.20,3,1,8,0.00
2013-1-16,30.0,27.2,25.0,25.0,23.3,21.0,90,86,77,30.34,30.29,4,1,9,0.00
2013-1-17,33.0,26.0,18.0,26.0,22.1,14.0,90,85,74,30.30,30.11,4,1,8,0.00
2013-1-18,36.0,22.8,14.0,25.0,18.6,11.0,92,84,59,30.13,30.01,5,2,8,0.01
2013-1-19,29.0,16.8,9.0,20.0,13.0,6.0,90,85,69,30.22,30.12,5,2,6,0.01
2013-1-20,25.0,18.1,12.0,21.0,15.6,9.0,93,90,82,30.29,30.18,4,1,6,0.00
2013-1-21,26.0,21.7,16.0,21.0,19.1,13.0,94,89,79,30.19,30.05,3,1,8,0.00
2013-1-22,26.0,21.9,19.0,20.0,18.1,16.0,91,86,76,30.09,29.93,4,1,7,0.00
2013-1-23,30.0,26.3,19.0,29.0,24.2,17.0,99,92,81,29.94,29.69,3,0,6,0.00
2013-1-24,32.0,30.0,28.0,31.0,26.8,25.0,99,88,80,30.00,29.76,11,2,17,0.00
2013-1-25,34.0,30.6,28.0,32.0,29.8,27.0,99,97,92,29.93,29.69,2,0,4,0.00
2013-1-26,40.0,34.0,32.0,37.0,33.2,32.0,99,96,83,29.69,29.63,3,1,9,0.18
2013-1-27,35.0,33.1,32.0,33.0,27.9,26.0,99,81,72,29.73,29.67,9,4,17,0.01
2013-1-28,34.0,30.6,27.0,29.0,27.3,26.0,95,88,72,29.70,29.60,8,2,15,0.02
2013-1-29,43.0,33.0,28.0,32.0,29.2,26.0,99,87,58,29.91,29.63,7,1,14,0.02
2013-1-30,38.0,34.2,32.0,34.0,32.1,31.0,99,92,80,29.95,29.86,13,4,26,0.07
2013-1-31,37.0,34.4,32.0,34.0,32.5,31.0,98,93,81,30.02,29.93,6,2,11,0.01
2013-2-1,38.0,34.7,33.0,34.0,32.1,31.0,99,90,80,30.21,29.95,10,3,18,0.00
2013-2-2,39.0,32.4,27.0,32.0,28.9,25.0,97,87,73,30.25,30.02,4,1,6,0.00
2013-2-3,35.0,32.6,29.0,32.0,30.3,28.0,99,92,85,30.02,29.85,4,1,8,0.00
2013-2-4,37.0,34.3,33.0,33.0,32.0,31.0,97,91,82,29.86,29.75,6,1,15,0.00
2013-2-5,41.0,34.1,32.0,37.0,32.9,31.0,99,95,77,29.77,29.55,4,1,8,0.00
2013-2-6,34.0,32.4,29.0,34.0,31.8,29.0,99,97,91,29.79,29.63,4,1,5,0.00
2013-2-7,36.0,33.6,33.0,36.0,33.5,32.0,99,99,96,29.79,29.69,3,1,5,0.07
2013-2-8,34.0,31.5,26.0,34.0,31.1,25.0,99,97,92,29.90,29.80,3,1,6,0.03
2013-2-9,42.0,29.5,24.0,32.0,27.1,23.0,99,91,67,29.95,29.78,8,2,11,0.01
2013-2-10,43.0,29.1,21.0,31.0,25.3,20.0,98,87,60,30.04,29.93,5,2,8,0.01
2013-2-11,36.0,30.6,25.0,30.0,27.5,23.0,93,88,72,29.99,29.95,2,0,4,0.01
2013-2-12,39.0,34.1,32.0,31.0,30.1,29.0,94,86,71,30.02,29.88,4,1,9,0.00
2013-2-13,50.0,34.8,28.0,35.0,30.3,26.0,98,85,57,30.09,29.85,8,3,14,0.00
2013-2-14,47.0,32.4,24.0,31.0,26.4,23.0,97,81,49,30.28,30.09,12,3,21,0.00
2013-2-15,49.0,33.5,26.0,33.0,28.1,23.0,96,82,52,30.29,30.05,8,2,12,0.00
2013-2-16,40.0,34.0,30.0,35.0,31.5,28.0,99,91,77,30.05,29.67,4,1,8,0.12
2013-2-17,51.0,35.5,24.0,38.0,29.1,18.0,99,81,30,29.87,29.67,8,3,16,0.12
2013-2-18,40.0,31.5,23.0,30.0,24.4,19.0,90,76,52,29.88,29.57,4,2,8,0.00
2013-2-19,40.0,34.6,32.0,35.0,32.2,29.0,99,91,75,29.64,29.50,5,1,9,0.06
2013-2-20,45.0,32.1,24.0,33.0,25.4,21.0,99,79,39,29.74,29.64,7,2,14,0.01
2013-2-21,34.0,28.0,21.0,32.0,25.9,19.0,97,92,86,29.78,29.70,4,1,7,0.05
2013-2-22,36.0,32.3,31.0,35.0,32.2,30.0,99,99,97,29.72,29.31,2,0,11,0.18
2013-2-23,51.0,36.5,25.0,34.0,28.6,22.0,99,75,38,29.95,29.37,11,4,20,0.11
2013-2-24,42.0,31.2,22.0,30.0,26.1,20.0,95,82,58,30.04,29.80,5,1,8,0.01
2013-2-25,39.0,33.6,31.0,38.0,32.5,29.0,99,96,87,29.81,29.62,2,0,6,0.25
2013-2-26,44.0,35.0,29.0,35.0,30.6,27.0,99,85,50,30.02,29.81,5,1,10,0.01
2013-2-27,49.0,36.4,28.0,35.0,30.7,26.0,97,82,45,30.02,29.95,5,1,7,0.02
2013-2-28,41.0,35.4,31.0,39.0,34.6,31.0,99,97,87,30.09,30.01,2,0,5,0.23
2013-3-1,44.0,37.5,35.0,44.0,37.5,35.0,99,99,99,30.09,29.99,4,1,5,0.05
2013-3-2,49.0,39.2,34.0,45.0,38.2,33.0,99,96,85,30.01,29.58,5,1,7,0.02
2013-3-3,49.0,39.7,28.0,38.0,24.4,17.0,99,57,31,29.96,29.58,9,3,21,0.04
2013-3-4,49.0,35.9,26.0,29.0,24.4,18.0,90,66,31,30.06,29.87,6,2,12,0.00
2013-3-5,44.0,35.9,29.0,29.0,24.0,20.0,78,62,43,29.88,29.63,4,2,11,0.00
2013-3-6,37.0,35.0,32.0,37.0,31.5,26.0,99,88,67,29.63,29.43,4,1,10,0.20
2013-3-7,44.0,35.7,32.0,41.0,35.0,32.0,99,97,88,29.83,29.56,4,1,7,0.61
2013-3-8,52.0,39.1,33.0,41.0,35.7,31.0,99,88,57,29.88,29.76,4,1,8,0.01
2013-3-9,55.0,36.8,28.0,36.0,30.5,26.0,99,82,39,30.14,29.88,8,2,11,0.00
2013-3-10,49.0,34.8,26.0,34.0,29.3,25.0,98,82,55,30.15,29.95,8,2,17,0.00
2013-3-11,54.0,37.8,26.0,34.0,26.3,18.0,99,70,24,30.07,29.96,11,3,17,0.00
2013-3-12,42.0,36.1,32.0,40.0,33.6,26.0,99,91,64,29.97,29.78,4,1,10,0.12
2013-3-13,54.0,42.3,35.0,46.0,39.5,35.0,99,90,71,29.91,29.78,6,1,8,0.04
2013-3-14,52.0,43.3,39.0,49.0,42.1,36.0,99,95,86,29.88,29.69,4,2,8,0.05
2013-3-15,61.0,43.3,35.0,45.0,37.4,33.0,99,83,40,29.90,29.72,8,3,12,0.01
2013-3-16,53.0,40.3,31.0,40.0,34.6,30.0,97,81,50,29.80,29.37,10,2,20,0.00
2013-3-17,54.0,39.9,27.0,35.0,22.2,9.0,86,56,16,29.72,29.39,13,4,28,0.05
2013-3-18,47.0,34.0,25.0,28.0,23.6,19.0,83,67,39,29.92,29.69,13,2,19,0.01
2013-3-19,51.0,35.5,20.0,26.0,21.1,14.0,89,60,27,30.04,29.61,4,2,9,0.00
2013-3-20,46.0,37.3,33.0,42.0,34.0,23.0,99,89,48,29.61,29.24,4,2,11,0.33
2013-3-21,47.0,38.5,25.0,35.0,22.9,15.0,98,57,31,29.78,29.42,13,4,21,0.02
2013-3-22,46.0,31.4,20.0,24.0,17.8,10.0,86,61,25,30.01,29.78,8,3,16,0.00
2013-3-23,48.0,31.4,19.0,20.0,15.5,12.0,77,56,24,30.11,29.98,8,2,15,0.00
2013-3-24,52.0,34.7,24.0,23.0,19.3,16.0,73,56,25,30.12,29.93,6,3,11,0.00
2013-3-25,53.0,39.8,23.0,25.0,21.7,17.0,82,52,26,29.97,29.76,8,4,13,0.00
2013-3-26,60.0,38.0,24.0,28.0,22.7,19.0,83,59,21,29.83,29.67,7,3,12,0.00
2013-3-27,63.0,43.8,28.0,33.0,28.0,22.0,84,58,28,29.79,29.67,8,3,12,0.00
2013-3-28,65.0,48.3,36.0,40.0,33.2,30.0,81,58,32,29.85,29.74,7,3,12,0.00
2013-3-29,36.0,31.5,29.0,34.0,29.0,27.0,96,91,82,29.96,29.85,4,2,6,0.00
2013-3-30,69.0,46.8,30.0,41.0,32.8,-99.9,93,66,29,30.06,29.84,8,4,13,0.00
2013-3-31,75.0,47.5,31.0,40.0,33.2,27.0,92,63,24,29.91,29.67,8,3,11,0.00
2013-4-1,76.0,50.0,34.0,41.0,34.9,29.0,87,60,27,29.79,29.63,8,3,11,0.00
2013-4-2,68.0,49.7,33.0,47.0,38.4,29.0,91,67,44,29.83,29.69,9,4,15,0.00
2013-4-3,67.0,48.8,33.0,46.0,38.3,31.0,96,70,40,29.87,29.73,9,4,17,0.00
2013-4-4,59.0,48.3,40.0,51.0,42.0,35.0,99,80,56,29.77,29.46,4,2,11,0.15
2013-4-5,59.0,49.2,43.0,51.0,45.4,41.0,99,87,57,29.57,29.49,9,2,22,0.18
2013-4-6,61.0,49.1,40.0,54.0,40.1,30.0,99,75,38,29.58,29.49,14,3,28,0.09
2013-4-7,45.0,40.3,34.0,45.0,39.4,31.0,99,96,84,29.57,29.32,4,1,8,0.40
2013-4-8,56.0,43.3,38.0,42.0,39.0,33.0,99,87,49,29.98,29.47,4,1,8,0.19
2013-4-9,55.0,45.9,37.0,46.0,38.8,34.0,99,79,47,30.07,29.92,6,2,11,0.17
2013-4-10,49.0,44.0,38.0,48.0,41.9,38.0,99,92,84,29.93,29.57,4,1,7,0.14
2013-4-11,60.0,44.3,31.0,42.0,34.7,26.0,99,75,30,29.85,29.75,10,3,20,0.02
2013-4-12,51.0,38.4,28.0,41.0,33.1,25.0,99,83,52,29.87,29.31,5,1,8,0.33
2013-4-13,51.0,39.2,29.0,39.0,33.5,27.0,99,81,47,29.57,29.23,12,4,21,0.39
2013-4-14,51.0,38.2,29.0,40.0,34.4,27.0,99,88,51,29.70,29.57,11,2,17,0.18
2013-4-15,52.0,39.3,27.0,36.0,24.6,15.0,99,62,30,29.94,29.70,8,2,13,0.14
2013-4-16,54.0,37.8,25.0,27.0,20.0,15.0,82,54,23,30.11,29.94,5,2,15,0.01
2013-4-17,59.0,39.7,21.0,29.0,22.8,17.0,86,56,24,30.17,29.98,10,3,17,0.00
2013-4-18,63.0,47.6,26.0,41.0,31.2,22.0,87,57,33,30.06,29.84,9,4,15,0.02
2013-4-19,62.0,48.7,40.0,52.0,45.2,40.0,99,88,58,29.84,29.62,8,2,18,0.26
2013-4-20,61.0,48.4,36.0,47.0,39.7,32.0,99,76,40,29.82,29.68,11,3,18,0.02
2013-4-21,58.0,46.5,31.0,37.0,25.9,9.0,83,50,17,30.03,29.82,6,2,15,0.01
2013-4-22,63.0,42.2,25.0,30.0,22.0,17.0,77,50,18,30.23,30.03,7,2,12,0.00
2013-4-23,63.0,41.2,27.0,32.0,25.8,19.0,78,58,26,30.09,29.93,8,2,16,0.00
2013-4-24,68.0,47.6,26.0,37.0,30.4,22.0,87,57,24,30.05,29.68,10,3,15,0.00
2013-4-25,77.0,52.0,31.0,42.0,34.1,27.0,88,57,21,29.77,29.65,13,4,25,0.00
2013-4-26,76.0,56.2,35.0,48.0,39.1,31.0,88,57,27,29.88,29.76,8,3,15,0.00
2013-4-27,71.0,55.7,41.0,43.0,37.0,31.0,83,54,24,29.80,29.58,14,4,25,0.00
2013-4-28,67.0,53.7,32.0,40.0,31.8,23.0,84,47,24,29.80,29.49,15,4,21,0.00
2013-4-29,55.0,49.3,32.0,32.0,23.9,14.0,64,38,21,29.69,29.40,20,5,32,0.00
2013-4-30,58.0,41.2,25.0,28.0,21.9,15.0,81,51,20,30.08,29.69,8,3,14,0.00
2013-5-1,64.0,42.4,21.0,28.0,21.8,15.0,80,50,17,30.31,30.08,7,3,15,0.00
2013-5-2,71.0,51.4,28.0,41.0,31.7,22.0,81,51,25,30.34,30.00,8,3,16,0.00
2013-5-3,77.0,60.4,39.0,47.0,40.9,35.0,88,53,26,30.07,29.89,5,2,11,0.00
2013-5-4,79.0,59.4,40.0,42.0,37.9,34.0,81,51,20,30.10,29.81,5,3,13,0.00
2013-5-5,86.0,58.6,38.0,45.0,38.0,31.0,79,52,19,29.89,29.59,6,2,11,0.00
2013-5-6,91.0,61.8,41.0,53.0,42.3,36.0,82,55,20,29.72,29.44,6,3,11,0.00
2013-5-7,92.0,62.4,43.0,58.0,44.9,38.0,83,58,24,29.64,29.52,6,3,11,0.00
2013-5-8,90.0,67.0,48.0,56.0,47.6,42.0,83,56,24,29.76,29.63,8,3,13,0.00
2013-5-9,92.0,65.5,45.0,56.0,45.3,39.0,87,56,17,29.88,29.70,6,2,11,0.00
2013-5-10,93.0,63.8,46.0,58.0,42.4,-99.9,79,55,21,29.95,29.76,8,3,11,0.00
2013-5-11,90.0,77.3,55.0,62.0,47.7,-99.9,82,44,24,29.78,29.72,8,4,14,0.00
2013-5-12,75.0,62.1,52.0,61.0,52.0,48.0,89,71,43,29.77,29.65,6,2,14,0.00
2013-5-13,70.0,60.2,48.0,56.0,48.4,38.0,96,69,35,29.73,29.57,13,3,27,0.04
2013-5-14,67.0,51.4,38.0,46.0,38.2,32.0,99,67,28,29.90,29.73,7,3,17,0.05
2013-5-15,74.0,55.0,36.0,44.0,38.1,34.0,95,60,27,29.86,29.63,9,3,16,0.01
2013-5-16,72.0,51.7,42.0,53.0,29.8,-99.9,96,70,38,29.70,29.62,5,2,15,0.00
2013-5-17,76.0,54.9,38.0,51.0,41.1,-99.9,99,72,35,29.70,29.57,9,2,18,0.00
2013-5-18,65.0,51.5,42.0,58.0,49.3,40.0,99,93,67,29.87,29.67,6,1,12,0.26
2013-5-19,73.0,55.7,44.0,57.0,50.2,44.0,99,84,48,29.99,29.87,10,2,14,0.05
2013-5-20,75.0,53.5,38.0,62.0,48.3,38.0,99,85,44,30.04,29.66,4,2,10,0.01
2013-5-21,75.0,55.9,45.0,62.0,49.9,44.0,99,83,49,29.66,29.28,15,3,27,0.71
2013-5-22,46.0,42.5,38.0,46.0,42.5,38.0,99,99,99,29.80,29.57,3,1,9,1.29
2013-5-23,63.0,45.7,34.0,46.0,39.9,34.0,99,84,42,29.81,29.71,4,2,8,0.19
2013-5-24,68.0,49.6,32.0,45.0,39.6,32.0,99,73,33,29.76,29.62,16,4,27,0.01
2013-5-25,67.0,52.4,40.0,49.0,44.8,40.0,99,78,47,29.78,29.71,8,2,14,0.00
2013-5-26,75.0,54.7,37.0,51.0,44.3,37.0,99,74,30,29.79,29.59,4,2,11,0.00
2013-5-27,68.0,56.1,49.0,55.0,50.2,46.0,99,83,47,29.67,29.53,8,2,15,0.05
2013-5-28,71.0,57.8,49.0,57.0,51.4,48.0,99,82,44,29.57,29.51,12,3,17,0.18
2013-5-29,68.0,56.7,50.0,56.0,50.8,47.0,99,82,50,29.57,29.43,15,2,25,0.04
2013-5-30,67.0,55.6,45.0,54.0,49.5,43.0,99,82,44,29.86,29.57,11,3,19,0.21
2013-5-31,73.0,56.3,41.0,54.0,47.0,41.0,99,76,36,29.99,29.86,10,2,19,0.02
2013-6-1,72.0,55.0,42.0,56.0,47.0,41.0,99,78,39,30.00,29.75,4,2,8,0.00
2013-6-2,70.0,56.6,50.0,59.0,51.6,46.0,99,85,54,29.77,29.62,8,2,13,0.14
2013-6-3,76.0,55.9,41.0,57.0,49.3,41.0,99,82,43,29.85,29.69,9,2,17,0.01
2013-6-4,81.0,59.7,44.0,58.0,50.0,44.0,99,76,30,29.93,29.75,4,2,8,0.02
2013-6-5,86.0,64.7,47.0,65.0,53.8,47.0,99,73,34,29.83,29.62,11,3,15,0.01
2013-6-6,88.0,66.2,49.0,69.0,54.2,48.0,99,72,31,29.78,29.59,8,2,14,0.00
2013-6-7,84.0,63.9,50.0,58.0,53.2,43.0,99,73,26,29.63,29.51,8,3,17,0.00
2013-6-8,82.0,61.9,42.0,65.0,48.3,39.0,93,66,33,29.78,29.59,8,3,16,0.00
2013-6-9,79.0,61.4,42.0,51.0,43.2,38.0,99,60,23,29.66,29.57,15,4,27,0.00
2013-6-10,83.0,60.5,38.0,53.0,44.7,37.0,98,63,23,29.65,29.47,7,3,11,0.00
2013-6-11,77.0,60.9,42.0,52.0,45.6,39.0,96,62,32,29.69,29.54,12,4,21,0.00
2013-6-12,77.0,65.3,39.0,45.0,41.1,35.0,97,46,26,29.80,29.69,8,4,16,0.00
2013-6-13,76.0,58.4,39.0,56.0,46.1,37.0,96,68,32,29.80,29.72,9,2,20,0.04
2013-6-14,68.0,54.4,41.0,59.0,48.8,41.0,99,83,54,29.85,29.78,8,3,16,0.02
2013-6-15,83.0,62.0,42.0,56.0,47.4,42.0,99,68,24,29.84,29.68,4,2,10,0.01
2013-6-16,89.0,64.2,46.0,60.0,49.6,44.0,97,67,24,29.83,29.67,4,2,8,0.01
2013-6-17,84.0,65.8,52.0,61.0,55.1,49.0,93,71,41,29.78,29.59,4,2,15,0.00
2013-6-18,71.0,62.9,55.0,64.0,56.9,52.0,99,82,56,29.69,29.55,8,2,14,0.02
2013-6-19,59.0,55.4,53.0,59.0,55.4,53.0,99,99,96,29.60,29.52,2,1,4,0.52
2013-6-20,57.0,53.6,51.0,55.0,53.0,51.0,99,97,88,29.76,29.46,6,2,13,0.61
2013-6-21,66.0,64.2,61.0,57.0,54.5,53.0,87,71,62,29.85,29.83,2,1,5,0.02
2013-6-22,70.0,63.0,53.0,59.0,56.7,53.0,99,81,65,29.84,29.70,3,1,6,0.00
2013-6-23,82.0,65.6,54.0,61.0,56.6,52.0,99,77,38,29.72,29.40,4,2,13,0.01
2013-6-24,70.0,60.9,56.0,65.0,60.0,56.0,99,97,79,29.47,29.36,8,1,14,0.13
2013-6-25,70.0,60.8,55.0,61.0,57.0,53.0,99,88,64,29.62,29.47,9,2,17,0.06
2013-6-26,77.0,63.7,52.0,60.0,54.9,52.0,99,76,47,29.85,29.62,8,3,17,0.01
2013-6-27,75.0,61.6,50.0,67.0,58.4,50.0,99,90,63,29.99,29.84,4,2,8,0.01
2013-6-28,90.0,70.0,58.0,67.0,62.3,58.0,99,80,40,30.03,29.83,4,2,9,0.01
2013-6-29,85.0,67.4,56.0,74.0,63.7,56.0,99,89,57,29.88,29.74,4,2,8,0.00
2013-6-30,95.0,72.6,57.0,71.0,63.0,57.0,99,77,38,29.86,29.72,5,2,11,0.00
2013-7-1,99.0,69.5,58.0,78.0,64.3,58.0,99,86,40,29.85,29.66,6,2,12,0.00
2013-7-2,102.0,77.2,61.0,75.0,67.7,61.0,99,78,33,29.77,29.57,8,2,16,0.00
2013-7-3,94.0,76.0,57.0,67.0,57.8,50.0,99,63,23,29.72,29.61,10,3,15,0.00
2013-7-4,89.0,69.9,51.0,62.0,55.9,51.0,99,68,33,29.66,29.50,9,4,17,0.00
2013-7-5,84.0,65.9,52.0,60.0,56.1,51.0,99,75,37,29.63,29.53,10,3,23,0.00
2013-7-6,87.0,63.0,50.0,61.0,54.3,49.0,99,79,30,29.71,29.57,4,2,9,0.00
2013-7-7,90.0,65.2,47.0,59.0,52.2,46.0,99,70,29,29.71,29.56,8,2,15,0.00
2013-7-8,78.0,63.4,54.0,66.0,58.9,52.0,99,87,52,29.85,29.64,8,2,18,0.00
2013-7-9,91.0,67.1,50.0,64.0,57.0,50.0,99,76,32,29.93,29.71,7,3,13,0.00
2013-7-10,95.0,71.4,51.0,62.0,53.0,-99.9,99,64,23,29.76,29.45,11,3,23,0.00
2013-7-11,87.0,72.9,49.0,54.0,46.9,32.0,99,48,16,29.58,29.47,8,4,20,0.00
2013-7-12,76.0,63.6,42.0,52.0,44.0,39.0,91,54,29,29.73,29.58,4,2,14,0.00
2013-7-13,85.0,65.3,44.0,57.0,47.7,44.0,99,61,25,29.85,29.73,4,2,11,0.00
2013-7-14,88.0,67.6,44.0,55.0,48.5,42.0,98,59,21,29.89,29.63,10,3,18,0.00
2013-7-15,87.0,70.5,45.0,55.0,48.9,43.0,95,52,28,29.77,29.65,5,2,10,0.00
2013-7-16,96.0,67.2,44.0,60.0,51.4,43.0,99,65,27,29.83,29.64,5,2,8,0.00
2013-7-17,89.0,69.4,58.0,68.0,60.2,54.0,99,75,45,29.87,29.66,8,2,23,0.00
2013-7-18,92.0,68.6,53.0,66.0,59.8,53.0,99,79,33,29.94,29.76,6,2,11,0.00
2013-7-19,96.0,63.0,53.0,64.0,57.4,53.0,99,84,30,29.86,29.67,4,2,8,0.00
2013-7-20,97.0,69.6,53.0,64.0,55.5,-99.9,99,70,24,29.72,29.50,8,3,15,0.00
2013-7-21,96.0,72.6,48.0,58.0,53.8,47.0,99,59,26,29.60,29.50,8,3,16,0.00
2013-7-22,96.0,76.0,52.0,60.0,56.2,51.0,99,58,27,29.64,29.51,8,3,16,0.00
2013-7-23,99.0,75.0,51.0,62.0,56.5,50.0,97,60,23,29.77,29.64,8,3,14,0.00
2013-7-24,100.0,72.0,51.0,60.0,54.7,49.0,95,62,22,29.75,29.62,6,2,14,0.00
2013-7-25,100.0,71.5,52.0,58.0,53.6,49.0,95,62,19,29.78,29.66,7,3,16,0.00
2013-7-26,100.0,69.7,49.0,57.0,51.0,46.0,92,60,20,29.81,29.62,8,3,13,0.00
2013-7-27,92.0,75.4,46.0,51.0,46.3,42.0,90,44,19,29.72,29.59,9,4,18,0.00
2013-7-28,91.0,69.7,46.0,53.0,46.9,42.0,87,51,20,29.67,29.55,5,2,9,0.00
2013-7-29,89.0,70.9,52.0,61.0,53.4,47.0,99,62,25,29.71,29.61,5,2,12,0.00
2013-7-30,91.0,67.1,51.0,54.0,49.9,47.0,91,63,22,29.85,29.71,6,2,9,0.00
2013-7-31,94.0,68.8,49.0,63.0,50.8,44.0,89,59,21,29.92,29.69,5,2,10,0.00
2013-8-1,85.0,71.1,56.0,63.0,59.4,52.0,99,70,41,29.72,29.61,4,1,8,0.00
2013-8-2,78.0,64.2,56.0,67.0,60.8,56.0,99,90,57,29.83,29.66,6,2,14,0.00
2013-8-3,84.0,68.7,59.0,65.0,61.4,59.0,99,81,44,29.85,29.76,9,3,17,0.00
2013-8-4,85.0,64.9,52.0,63.0,58.9,52.0,99,84,42,29.84,29.72,8,2,15,0.00
2013-8-5,88.0,68.1,55.0,65.0,60.2,55.0,99,80,40,29.79,29.65,7,2,12,0.00
2013-8-6,94.0,68.4,52.0,64.0,57.2,52.0,99,75,27,29.78,29.59,9,3,18,0.00
2013-8-7,96.0,75.0,58.0,64.0,58.3,52.0,94,62,24,29.72,29.57,5,3,13,0.00
2013-8-8,99.0,72.3,54.0,61.0,56.6,53.0,98,65,23,29.74,29.58,5,3,13,0.00
2013-8-9,101.0,74.8,56.0,64.0,57.8,53.0,93,61,25,29.73,29.53,4,3,11,0.00
2013-8-10,96.0,73.7,62.0,64.0,59.6,57.0,89,65,28,29.74,29.60,4,2,11,0.00
2013-8-11,95.0,73.5,61.0,62.0,58.4,56.0,96,65,28,29.79,29.59,8,2,17,0.00
2013-8-12,94.0,68.8,57.0,63.0,58.7,56.0,96,75,35,29.77,29.67,4,2,8,0.00
2013-8-13,95.0,71.4,56.0,63.0,55.9,-99.9,99,69,25,29.83,29.68,11,3,16,0.00
2013-8-14,98.0,69.0,53.0,61.0,53.9,-99.9,93,68,27,29.77,29.59,4,2,10,0.00
2013-8-15,90.0,61.5,60.0,66.0,37.5,-99.9,89,63,32,29.69,29.61,7,2,12,0.00
2013-8-16,90.0,68.4,56.0,61.0,53.7,-99.9,98,68,32,29.72,29.65,8,2,11,0.00
2013-8-17,90.0,69.2,48.0,61.0,52.4,-99.9,99,62,32,29.78,29.60,11,4,21,0.00
2013-8-18,90.0,69.9,53.0,60.0,53.5,49.0,99,63,28,29.80,29.64,11,4,16,0.00
2013-8-19,90.0,64.9,48.0,57.0,41.1,-99.9,95,58,27,29.75,29.62,10,3,15,0.00
2013-8-20,87.0,67.3,43.0,50.0,42.4,-99.9,92,51,20,29.82,29.69,13,3,21,0.00
2013-8-21,91.0,71.4,46.0,50.0,44.0,38.0,87,45,17,29.91,29.73,4,2,9,0.00
2013-8-22,93.0,67.3,47.0,53.0,46.6,41.0,82,52,22,29.80,29.55,5,2,10,0.00
2013-8-23,81.0,64.4,56.0,62.0,56.1,46.0,99,77,51,29.65,29.53,4,2,10,0.00
2013-8-24,83.0,64.1,53.0,63.0,56.7,-99.9,99,81,50,29.65,29.50,4,2,10,0.00
2013-8-25,87.0,67.6,53.0,62.0,57.5,53.0,99,75,38,29.69,29.54,4,2,7,0.00
2013-8-28,92.0,76.7,62.0,61.0,58.4,55.0,83,56,35,29.66,29.58,4,2,11,0.00
2013-8-29,87.0,69.2,58.0,62.0,58.6,55.0,93,71,38,29.75,29.63,13,3,21,0.00
2013-8-30,86.0,67.0,52.0,60.0,55.0,48.0,99,71,33,29.84,29.75,8,3,15,0.00
2013-8-31,88.0,62.7,47.0,57.0,49.2,-99.9,99,69,31,29.90,29.69,5,3,11,0.00
2013-9-1,98.0,65.3,48.0,58.0,50.8,46.0,96,65,24,29.75,29.47,5,2,10,0.00
2013-9-2,89.0,68.0,53.0,61.0,54.1,48.0,86,64,34,29.69,29.57,8,3,13,0.00
2013-9-3,91.0,69.4,57.0,66.0,59.4,55.0,95,74,40,29.75,29.65,5,2,12,0.00
2013-9-4,96.0,81.1,62.0,65.0,61.8,58.0,89,56,36,29.75,29.66,8,3,12,0.00
2013-9-5,85.0,71.3,64.0,65.0,61.6,58.0,89,73,49,29.78,29.63,6,2,11,0.00
2013-9-6,71.0,62.9,56.0,66.0,61.7,56.0,99,96,78,29.88,29.64,6,2,17,0.14
2013-9-7,63.0,58.2,56.0,63.0,57.2,-99.9,99,98,99,29.89,29.82,2,0,4,0.48
2013-9-8,73.0,60.5,54.0,65.0,58.0,54.0,99,92,69,29.84,29.71,8,2,12,0.02
2013-9-9,86.0,64.4,53.0,65.0,59.1,53.0,99,86,45,29.81,29.66,6,2,11,0.00
2013-9-10,91.0,65.4,53.0,66.0,59.1,53.0,99,84,38,29.84,29.72,5,2,10,0.00
2013-9-11,93.0,65.7,52.0,64.0,57.7,52.0,99,80,38,29.91,29.78,5,3,11,0.00
2013-9-12,96.0,68.4,55.0,66.0,59.3,55.0,99,77,35,29.86,29.62,5,3,11,0.00
2013-9-13,97.0,66.7,53.0,65.0,58.5,53.0,99,79,31,29.67,29.49,4,2,8,0.00
2013-9-14,94.0,66.7,55.0,64.0,57.2,-99.9,99,78,37,29.71,29.58,4,2,11,0.00
2013-9-15,86.0,65.9,54.0,66.0,59.1,54.0,99,81,44,29.66,29.41,12,2,27,0.00
2013-9-16,76.0,64.3,56.0,67.0,60.2,56.0,99,88,56,29.61,29.50,11,3,24,0.11
2013-9-17,74.0,59.6,53.0,62.0,56.5,53.0,99,90,57,29.61,29.40,13,2,26,0.47
2013-9-18,55.0,51.9,44.0,55.0,51.8,44.0,99,99,96,29.83,29.50,5,3,15,0.58
2013-9-19,75.0,52.9,40.0,55.0,47.3,40.0,99,85,44,29.92,29.73,4,2,9,0.01
2013-9-20,80.0,55.2,41.0,56.0,48.5,41.0,99,82,41,29.75,29.36,4,2,11,0.00
2013-9-21,72.0,57.3,51.0,56.0,50.4,-99.9,99,81,48,29.44,29.34,8,2,17,0.00
2013-9-22,66.0,52.5,43.0,53.0,48.9,43.0,99,89,54,29.46,29.37,10,2,17,0.02
2013-9-23,62.0,53.4,45.0,52.0,47.9,45.0,99,84,56,29.64,29.45,8,2,17,0.02
2013-9-24,63.0,50.0,39.0,51.0,47.0,38.0,99,90,62,29.65,29.54,4,2,8,0.00
2013-9-25,51.0,45.1,38.0,50.0,44.7,38.0,99,98,87,29.72,29.58,4,1,8,0.05
2013-9-26,64.0,48.9,41.0,53.0,44.8,40.0,99,88,44,29.81,29.72,4,2,9,0.02
2013-9-29,56.0,51.2,48.0,50.0,48.2,43.0,99,90,62,29.37,29.16,8,2,14,0.07
2013-9-30,59.0,51.3,41.0,50.0,43.9,39.0,99,77,58,29.52,29.09,11,4,17,0.14
2013-10-1,54.0,43.5,38.0,46.0,42.2,38.0,99,95,64,29.85,29.72,3,2,6,0.07
2013-10-2,52.0,42.7,33.0,44.0,40.0,33.0,99,91,69,29.92,29.83,5,2,8,0.07
2013-10-3,65.0,43.3,32.0,47.0,37.9,32.0,99,85,40,30.17,29.86,4,2,7,0.01
2013-10-4,64.0,40.1,30.0,44.0,36.3,30.0,99,89,49,30.29,30.14,4,2,9,0.00
2013-10-5,64.0,46.2,36.0,46.0,41.4,36.0,99,86,47,30.17,30.03,4,1,6,0.00
2013-10-6,67.0,46.5,33.0,49.0,41.6,33.0,99,86,45,30.05,29.69,4,2,8,0.00
2013-10-7,66.0,45.6,35.0,48.0,41.7,35.0,99,88,44,29.69,29.48,8,2,19,0.11
2013-10-8,58.0,45.2,36.0,48.0,43.1,35.0,99,93,63,29.80,29.60,4,1,6,0.01
2013-10-9,61.0,44.3,31.0,47.0,40.5,31.0,99,88,47,29.88,29.62,3,2,8,0.01
2013-10-10,58.0,45.9,32.0,48.0,42.4,31.0,99,88,65,29.78,29.59,9,2,15,0.00
2013-10-11,57.0,38.5,28.0,43.0,34.7,28.0,99,88,50,29.91,29.78,4,2,8,0.00
2013-10-12,61.0,42.7,32.0,43.0,35.2,-99.9,99,79,47,29.94,29.80,4,2,8,0.00
2013-10-13,60.0,36.6,27.0,42.0,32.3,27.0,99,87,40,30.08,29.94,4,2,8,0.00
2013-10-14,62.0,36.4,27.0,42.0,32.2,27.0,99,87,40,30.20,30.08,4,2,8,0.00
2013-10-15,59.0,38.5,27.0,41.0,34.4,27.0,99,87,50,30.20,29.94,4,2,9,0.00
2013-10-16,64.0,45.4,35.0,49.0,41.9,34.0,99,89,53,29.95,29.88,3,1,8,0.00
2013-10-17,62.0,38.5,28.0,46.0,35.3,28.0,99,90,48,30.06,29.96,4,2,8,0.00
2013-10-18,59.0,37.6,29.0,44.0,35.1,29.0,99,92,55,30.09,29.92,4,2,9,0.00
2013-10-19,59.0,38.3,29.0,47.0,35.5,-99.9,99,93,63,29.96,29.81,4,2,7,0.00
2013-10-20,65.0,46.4,35.0,49.0,42.2,35.0,99,87,54,29.95,29.83,4,2,9,0.00
2013-10-21,64.0,46.4,40.0,51.0,43.7,40.0,99,91,61,30.01,29.89,4,2,11,0.00
2013-10-22,61.0,46.0,40.0,51.0,44.0,40.0,99,93,67,30.02,29.88,4,2,12,0.00
2013-10-23,61.0,47.2,41.0,50.0,44.7,40.0,99,92,65,29.98,29.88,6,2,14,0.00
2013-10-24,62.0,46.6,40.0,49.0,43.7,39.0,99,91,63,29.94,29.83,4,2,11,0.00
2013-10-25,58.0,45.6,39.0,47.0,42.2,37.0,99,88,65,30.07,29.98,6,2,12,0.00
2013-10-26,56.0,43.0,34.0,46.0,39.4,-99.9,99,90,67,30.10,29.83,4,2,11,0.00
2013-10-27,49.0,44.3,40.0,48.0,40.9,27.0,99,89,51,29.83,29.63,7,2,14,0.07
2013-10-28,56.0,43.4,28.0,26.0,21.4,-99.9,77,45,29,29.86,29.72,8,4,17,0.01
2013-10-29,54.0,33.4,23.0,34.0,26.0,20.0,95,76,45,29.79,29.68,5,2,10,0.00
2013-10-30,46.0,31.6,22.0,33.0,27.5,21.0,99,85,58,29.84,29.75,3,2,5,0.00
2013-10-31,45.0,36.3,32.0,38.0,32.9,30.0,96,87,75,29.83,29.79,3,1,4,0.00
2013-11-1,45.0,36.7,28.0,40.0,34.8,27.0,99,93,79,30.02,29.75,3,1,5,0.00
2013-11-2,43.0,40.5,40.0,43.0,39.1,-99.9,99,97,94,29.76,29.27,5,1,10,0.40
2013-11-3,44.0,37.9,28.0,38.0,31.2,27.0,99,78,56,29.74,29.45,10,4,23,0.01
2013-11-4,44.0,33.3,24.0,34.0,28.7,23.0,99,84,61,29.92,29.74,4,2,8,0.00
2013-11-5,36.0,31.4,25.0,35.0,31.0,24.0,99,98,95,29.94,29.88,2,1,4,0.05
2013-11-6,38.0,34.7,32.0,36.0,34.1,32.0,99,97,88,30.13,29.94,2,1,4,0.04
2013-11-7,36.0,33.9,32.0,36.0,33.9,32.0,99,99,99,30.05,29.50,4,1,10,0.30
2013-11-8,48.0,37.8,32.0,46.0,37.1,32.0,99,97,82,29.92,29.63,8,2,16,0.05
2013-11-9,42.0,37.2,35.0,41.0,35.8,-99.9,99,97,92,30.00,29.91,3,1,6,0.05
2013-11-10,41.0,37.6,36.0,41.0,37.6,36.0,99,99,99,30.05,29.91,2,1,5,0.14
2013-11-11,51.0,41.2,35.0,46.0,38.4,33.0,99,90,71,30.16,30.05,5,2,13,0.04
2013-11-12,44.0,39.5,34.0,41.0,37.7,33.0,99,94,85,30.08,30.03,5,1,12,0.02
2013-11-13,52.0,43.5,39.0,47.0,41.7,38.0,99,94,74,30.08,29.99,8,1,14,0.00
2013-11-14,53.0,41.3,33.0,45.0,38.8,32.0,99,91,64,29.99,29.63,6,2,15,0.00
2013-11-15,40.0,37.2,32.0,39.0,35.8,32.0,99,94,80,29.63,29.05,8,2,14,0.11
2013-11-16,46.0,34.2,29.0,43.0,31.4,-99.9,99,92,58,29.40,28.97,5,1,15,0.20
2013-11-17,41.0,34.7,30.0,36.0,33.1,30.0,99,94,81,29.62,29.40,4,1,9,0.01
2013-11-18,40.0,36.4,32.0,40.0,36.4,32.0,99,99,99,29.62,29.34,2,0,4,0.01
2013-11-19,58.0,43.8,32.0,47.0,40.8,23.0,99,90,63,29.66,29.23,10,3,23,0.05
2013-11-20,35.0,28.4,15.0,23.0,10.1,1.0,80,47,32,30.25,29.66,8,2,27,0.02
2013-11-21,34.0,19.8,11.0,20.0,13.4,8.0,92,77,52,30.46,30.25,4,2,8,0.00
2013-11-22,34.0,20.4,13.0,22.0,16.0,10.0,94,83,60,30.55,30.43,4,2,8,0.00
2013-11-23,38.0,23.5,15.0,27.0,18.7,-99.9,97,86,63,30.42,30.11,4,2,11,0.00
2013-11-24,37.0,26.7,19.0,29.0,23.8,17.0,99,89,70,30.15,30.05,4,2,8,0.00
2013-11-25,37.0,29.4,24.0,31.0,26.8,23.0,99,90,75,30.22,30.15,3,1,8,0.00
2013-11-26,41.0,28.8,23.0,35.0,27.3,23.0,99,94,74,30.17,29.97,4,2,10,0.00
2013-11-27,42.0,31.2,25.0,35.0,28.3,23.0,99,90,65,29.99,29.91,4,2,9,0.00
2013-11-28,41.0,27.9,22.0,32.0,25.4,21.0,99,91,69,29.98,29.90,4,2,8,0.00
2013-11-29,30.0,26.5,20.0,30.0,26.5,20.0,99,99,98,30.04,29.98,2,0,4,0.00
2013-11-30,36.0,32.2,30.0,36.0,31.1,-99.9,99,98,97,30.04,29.88,2,0,7,0.05
2013-12-1,35.0,32.8,32.0,35.0,32.8,32.0,99,99,99,29.89,29.34,1,0,2,0.12
2013-12-2,37.0,32.3,23.0,35.0,31.2,23.0,99,95,79,29.78,29.31,4,1,11,0.19
2013-12-3,33.0,22.8,17.0,28.0,21.2,16.0,99,94,76,30.03,29.78,4,2,7,0.02
2013-12-4,23.0,19.6,14.0,22.0,17.0,11.0,99,89,75,30.07,30.02,4,2,10,0.01
2013-12-5,27.0,16.5,6.0,17.0,12.5,3.0,93,85,61,30.07,30.00,5,1,8,0.00
2013-12-6,22.0,9.0,1.0,12.0,2.1,-4.0,87,74,56,30.12,30.05,5,2,12,0.00
2013-12-7,17.0,5.3,-5.0,6.0,-3.1,-99.9,85,73,60,30.10,30.01,6,3,8,0.00
2013-12-8,18.0,6.2,-4.0,6.0,0.8,-8.0,85,78,59,30.22,30.09,5,2,8,0.00
2013-12-9,16.0,13.3,9.0,12.0,8.4,5.0,87,81,73,30.22,30.10,2,0,5,0.00
2013-12-10,27.0,14.9,6.0,15.0,10.2,3.0,90,82,60,30.22,30.09,4,2,7,0.01
2013-12-11,22.0,16.7,7.0,21.0,14.8,5.0,97,92,84,30.22,30.09,4,1,5,0.01
2013-12-12,26.0,23.1,19.0,25.0,22.1,18.0,99,96,90,30.09,29.86,3,1,4,0.00
2013-12-13,34.0,28.2,23.0,30.0,27.2,23.0,99,96,84,30.16,29.90,4,1,8,0.00
2013-12-14,32.0,30.1,29.0,32.0,29.0,-99.9,99,98,97,30.16,30.04,2,0,4,0.00
2013-12-15,36.0,32.8,31.0,36.0,32.8,31.0,99,99,99,30.04,29.96,2,0,6,0.06
2013-12-16,37.0,34.4,33.0,37.0,34.2,33.0,99,99,95,30.14,30.02,5,1,9,0.05
2013-12-17,34.0,32.0,30.0,34.0,32.0,30.0,99,99,99,30.09,29.72,3,1,5,0.01
2013-12-18,35.0,31.6,27.0,35.0,30.6,18.0,99,96,61,29.80,29.62,4,1,15,0.00
2013-12-19,26.0,20.0,10.0,21.0,17.0,8.0,95,88,69,30.01,29.79,4,1,6,0.00
2013-12-20,23.0,20.5,15.0,22.0,19.5,14.0,98,96,92,29.85,29.45,3,1,4,0.00
2013-12-21,29.0,22.5,15.0,25.0,19.6,-99.9,99,91,75,29.87,29.56,4,1,5,0.02
2013-12-22,28.0,24.0,17.0,27.0,22.2,16.0,98,93,82,30.05,29.87,3,1,5,0.01
2013-12-23,34.0,28.4,25.0,34.0,28.4,25.0,99,99,97,30.04,29.76,5,1,12,0.00
2013-12-24,30.0,28.6,27.0,30.0,28.6,27.0,99,99,98,30.32,30.04,4,1,11,0.00
2013-12-25,34.0,29.7,27.0,31.0,29.1,27.0,99,97,88,30.32,30.16,2,0,6,0.01
2013-12-26,33.0,29.6,26.0,33.0,29.5,26.0,99,99,98,30.17,30.06,3,1,4,0.01
2013-12-27,30.0,27.0,25.0,29.0,26.7,25.0,99,98,95,30.09,29.80,12,1,22,0.00
2013-12-28,30.0,26.9,25.0,29.0,25.7,-99.9,99,97,96,30.20,29.92,9,2,20,0.00
2013-12-29,30.0,26.8,24.0,28.0,26.3,24.0,99,97,90,30.19,30.01,2,0,8,0.00
2013-12-30,33.0,29.9,28.0,32.0,29.7,28.0,99,98,95,30.06,29.84,2,0,4,0.00
2013-12-31,35.0,32.7,30.0,34.0,32.0,30.0,99,97,90,30.09,29.83,6,2,11,0.08
2014-1-1,32.0,30.8,29.0,31.0,29.1,27.0,98,94,88,30.20,30.08,4,1,9,0.01
2014-1-2,32.0,30.9,30.0,32.0,30.9,29.0,99,99,98,30.11,29.47,0,0,2,0.01